LGZA/ZTH METAR and TAF weather

Enter ICAO airport designator
Station Type Date Time Source
LGZA METAR 2018/12/16 17:50 UTC NOAA

LGZA 161750Z 31012KT 9999 SCT025 12/05 Q1016


Station Type Date Time Source
LGZA Decoded METAR 2018/12/16 17:50 UTC NOAA

Zakinthos Airport , Greece (LGZA) 37-45N 020-53E
Dec 16, 2018 - 12:50 PM EST / 2018.12.16 1750 UTC
Wind: from the NW (310 degrees) at 14 MPH (12 KT):0
Visibility: greater than 7 mile(s):0
Sky conditions: partly cloudy
Temperature: 53 F (12 C)
Dew Point: 41 F (5 C)
Relative Humidity: 62%
Pressure (altimeter): 30.00 in. Hg (1016 hPa)
ob: LGZA 161750Z 31012KT 9999 SCT025 12/05 Q1016
cycle: 18

Station Type Date Time Source
LGZA TAF 2011/11/25 15:06 UTC NOAA

TAF TAF LGZA 251400Z 2515/2603 02012KT 9999 FEW025 SCT035 BKN080 PROB30
TEMPO 2518/2603 8000 RA PROB30 2522/2603 5000 BR SCT010


Example: see airport list